Time;durP1;ratioP1;P1;durP2;ratioP2;P2;SDS_P1;SDS_P2;PMS_P1;PMS_P2;Temp;Humidity;BMP_temperature;BMP_pressure;BME280_temperature;BME280_humidity;BME280_pressure;Samples;Min_cycle;Max_cycle;Signal;HPM_P1;HPM_P2
2022/11/04 00:01:52;;;;;;;;;;;;;;;15.55;61.86;96429.03;4215560;28;5621;-69
2022/11/04 00:03:55;;;;;;;;;;;;;;;15.51;61.95;96424.41;4216494;28;5633;-69
2022/11/04 00:06:00;;;;;;;;;;;;;;;15.44;61.91;96421.88;4216742;28;5700;-69
2022/11/04 00:12:23;;;;;;;;;;;;;;;15.46;61.80;96441.09;4215873;28;5616;-68
2022/11/04 00:12:51;;;;;;;;;;;;;;;15.45;61.77;96436.81;4214394;28;5617;-69
2022/11/04 00:17:17;;;;;;;;;;;;;;;15.43;62.00;96426.38;4213813;28;5609;-69
2022/11/04 00:17:18;;;;;;;;;;;;;;;15.37;61.88;96423.81;4205813;28;5533;-69
2022/11/04 00:19:22;;;;;;;;;;;;;;;15.36;61.95;96414.22;4214985;28;5636;-69
2022/11/04 00:28:45;;;;;;;;;;;;;;;15.46;61.86;96409.13;4214486;28;5625;-69
2022/11/04 00:30:48;;;;;;;;;;;;;;;15.49;61.85;96405.97;4205098;28;5675;-69
2022/11/04 00:35:22;;;;;;;;;;;;;;;15.54;61.76;96399.97;4148849;28;5608;-69
2022/11/04 00:37:25;;;;;;;;;;;;;;;15.53;61.88;96387.69;4142755;28;5878;-69
2022/11/04 00:39:27;;;;;;;;;;;;;;;15.55;61.80;96383.75;4132635;28;5933;-69
2022/11/04 00:41:30;;;;;;;;;;;;;;;15.57;61.81;96384.31;4132676;28;5723;-69
2022/11/04 00:43:34;;;;;;;;;;;;;;;15.54;61.52;96378.66;4136323;28;5742;-69
2022/11/04 00:45:37;;;;;;;;;;;;;;;15.50;61.67;96377.50;4150431;28;5625;-69
2022/11/04 00:47:40;;;;;;;;;;;;;;;15.49;61.59;96365.22;4151914;28;5717;-69
2022/11/04 00:49:43;;;;;;;;;;;;;;;15.46;61.49;96369.16;4141892;28;5715;-69
2022/11/04 00:51:46;;;;;;;;;;;;;;;15.43;61.41;96375.78;4147244;28;6541;-69
2022/11/04 00:53:49;;;;;;;;;;;;;;;15.42;61.26;96371.50;4151507;28;5839;-69
2022/11/04 00:55:51;;;;;;;;;;;;;;;15.41;61.07;96380.53;4139323;28;5723;-69
2022/11/04 00:57:54;;;;;;;;;;;;;;;15.36;61.25;96375.06;4148652;28;5703;-69
2022/11/04 00:59:58;;;;;;;;;;;;;;;15.38;61.15;96386.31;4143803;28;5700;-69
2022/11/04 01:02:01;;;;;;;;;;;;;;;15.37;61.05;96378.53;4152466;28;5714;-69
2022/11/04 01:04:04;;;;;;;;;;;;;;;15.37;61.01;96370.56;4139837;28;5955;-69
2022/11/04 01:06:07;;;;;;;;;;;;;;;15.37;60.89;96382.03;4146007;28;5851;-69
2022/11/04 01:08:10;;;;;;;;;;;;;;;15.40;60.88;96391.41;4144534;28;5759;-69
2022/11/04 01:10:13;;;;;;;;;;;;;;;15.35;60.83;96397.44;4187036;28;5609;-69
2022/11/04 01:12:16;;;;;;;;;;;;;;;15.35;60.62;96393.97;4219216;28;5632;-69
2022/11/04 01:14:20;;;;;;;;;;;;;;;15.33;60.58;96399.53;4219473;28;5617;-69
2022/11/04 01:16:24;;;;;;;;;;;;;;;15.34;60.39;96403.81;4219201;28;5177;-69
2022/11/04 01:18:32;;;;;;;;;;;;;;;15.28;60.31;96396.72;4218584;28;5545;-69
2022/11/04 01:20:35;;;;;;;;;;;;;;;15.24;60.27;96392.91;4219960;28;5624;-69
2022/11/04 01:22:37;;;;;;;;;;;;;;;15.24;60.21;96394.78;4217886;28;5613;-68
2022/11/04 01:24:40;;;;;;;;;;;;;;;15.25;60.14;96383.06;4219239;28;5607;-68
2022/11/04 01:26:43;;;;;;;;;;;;;;;15.24;60.01;96378.78;4208661;28;5070;-68
2022/11/04 01:28:46;;;;;;;;;;;;;;;15.27;59.98;96378.31;4217505;28;5696;-68
2022/11/04 01:30:49;;;;;;;;;;;;;;;15.29;59.78;96376.22;4216417;28;5601;-68
2022/11/04 01:32:53;;;;;;;;;;;;;;;15.30;59.78;96372.56;4217223;28;5614;-68
2022/11/04 01:34:56;;;;;;;;;;;;;;;15.29;59.66;96370.91;4217593;28;5857;-68
2022/11/04 01:36:59;;;;;;;;;;;;;;;15.30;59.58;96368.03;4219311;28;5708;-68
2022/11/04 01:39:01;;;;;;;;;;;;;;;15.26;59.46;96366.06;4202444;28;6989;-68
2022/11/04 01:41:05;;;;;;;;;;;;;;;15.23;59.40;96372.66;4202473;28;5644;-69
2022/11/04 01:43:14;;;;;;;;;;;;;;;15.22;59.29;96364.91;4219252;28;5621;-69
2022/11/04 01:45:20;;;;;;;;;;;;;;;15.24;59.39;96373.47;4218627;28;5325;-69
2022/11/04 01:47:29;;;;;;;;;;;;;;;15.24;59.10;96368.16;4218125;28;7727;-69
2022/11/04 01:49:38;;;;;;;;;;;;;;;15.24;59.18;96362.81;4217703;28;5609;-69
2022/11/04 01:51:47;;;;;;;;;;;;;;;15.24;59.01;96360.16;4218680;28;5684;-69
2022/11/04 01:53:55;;;;;;;;;;;;;;;15.26;58.85;96358.06;4218291;28;5707;-69
2022/11/04 01:56:00;;;;;;;;;;;;;;;15.28;58.86;96355.97;4218986;28;5707;-68
2022/11/04 01:58:06;;;;;;;;;;;;;;;15.27;58.58;96362.34;4218815;28;5629;-69
2022/11/04 02:00:11;;;;;;;;;;;;;;;15.20;58.52;96354.50;4217941;28;5711;-68
2022/11/04 02:02:15;;;;;;;;;;;;;;;15.20;58.75;96345.69;4207584;28;5613;-69
2022/11/04 02:04:27;;;;;;;;;;;;;;;15.21;58.74;96345.47;4217297;28;5727;-69
2022/11/04 02:06:31;;;;;;;;;;;;;;;15.22;58.44;96343.59;4207614;28;5605;-69
2022/11/04 02:08:35;;;;;;;;;;;;;;;15.20;58.50;96330.53;4216017;28;5821;-69
2022/11/04 02:10:41;;;;;;;;;;;;;;;15.22;58.41;96332.94;4217958;28;6295;-69
2022/11/04 02:12:48;;;;;;;;;;;;;;;15.24;58.29;96325.53;4218117;28;6302;-69
2022/11/04 02:14:53;;;;;;;;;;;;;;;15.22;58.01;96324.97;4218645;28;5613;-69
2022/11/04 02:17:04;;;;;;;;;;;;;;;15.22;58.00;96312.47;4216698;28;5089;-69
2022/11/04 02:19:29;;;;;;;;;;;;;;;15.23;57.81;96313.28;4212446;28;5624;-69
2022/11/04 02:22:15;;;;;;;;;;;;;;;15.24;57.84;96309.56;4214680;28;5624;-69
2022/11/04 02:24:55;;;;;;;;;;;;;;;15.26;57.78;96313.59;4129664;28;5819;-69
2022/11/04 02:27:26;;;;;;;;;;;;;;;15.28;57.65;96294.72;4127141;28;6665;-69
2022/11/04 02:29:51;;;;;;;;;;;;;;;15.26;57.48;96302.94;4127539;28;5731;-69
2022/11/04 02:32:03;;;;;;;;;;;;;;;15.22;57.60;96295.69;4131308;28;5845;-69
2022/11/04 02:34:18;;;;;;;;;;;;;;;15.23;57.72;96295.44;4130208;28;5956;-69
2022/11/04 02:36:30;;;;;;;;;;;;;;;15.21;57.66;96291.41;4132998;28;6517;-69
2022/11/04 02:38:43;;;;;;;;;;;;;;;15.17;57.45;96287.56;4134167;28;6418;-69
2022/11/04 02:40:55;;;;;;;;;;;;;;;15.13;57.35;96288.03;4133929;28;5767;-69
2022/11/04 02:43:02;;;;;;;;;;;;;;;15.12;57.19;96285.63;4133696;28;5994;-69
2022/11/04 02:45:16;;;;;;;;;;;;;;;15.12;57.11;96274.97;4133727;28;5723;-69
2022/11/04 02:47:23;;;;;;;;;;;;;;;15.15;57.15;96269.16;4131633;28;5877;-69
2022/11/04 02:49:32;;;;;;;;;;;;;;;15.18;56.97;96259.94;4133083;28;6455;-69
2022/11/04 02:51:40;;;;;;;;;;;;;;;15.22;56.82;96269.06;4133156;28;5731;-69
2022/11/04 02:53:50;;;;;;;;;;;;;;;15.20;56.44;96260.50;4133068;28;5723;-69
2022/11/04 02:55:56;;;;;;;;;;;;;;;15.17;56.74;96252.94;4133316;28;5957;-69
2022/11/04 02:58:01;;;;;;;;;;;;;;;15.19;56.64;96253.56;4133469;28;6555;-69
2022/11/04 03:00:07;;;;;;;;;;;;;;;15.19;56.51;96249.03;4172417;28;5779;-69
2022/11/04 03:02:18;;;;;;;;;;;;;;;15.22;56.41;96248.56;4209335;28;5609;-69
2022/11/04 03:04:27;;;;;;;;;;;;;;;15.24;56.45;96250.97;4217254;28;5664;-69
2022/11/04 03:06:33;;;;;;;;;;;;;;;15.25;56.37;96244.59;4217037;28;6294;-69
2022/11/04 03:08:40;;;;;;;;;;;;;;;15.26;56.35;96243.56;4199128;28;5743;-69
2022/11/04 03:10:45;;;;;;;;;;;;;;;15.27;56.21;96245.19;4213215;28;5845;-68
2022/11/04 03:12:54;;;;;;;;;;;;;;;15.29;56.23;96238.59;4214664;28;5680;-69
2022/11/04 03:15:03;;;;;;;;;;;;;;;15.32;56.14;96238.13;4217907;28;5620;-69
2022/11/04 03:17:10;;;;;;;;;;;;;;;15.33;56.25;96238.91;4214519;28;5641;-69
2022/11/04 03:19:24;;;;;;;;;;;;;;;15.31;56.12;96236.50;4214528;28;5633;-69
2022/11/04 03:21:29;;;;;;;;;;;;;;;15.31;56.44;96235.69;4217090;28;5680;-69
2022/11/04 03:23:32;;;;;;;;;;;;;;;15.29;56.17;96233.25;4217138;28;5734;-69
2022/11/04 03:25:39;;;;;;;;;;;;;;;15.29;56.04;96235.94;4217976;28;5710;-69
2022/11/04 03:27:49;;;;;;;;;;;;;;;15.26;56.16;96231.06;4217136;28;5703;-69
2022/11/04 03:29:59;;;;;;;;;;;;;;;15.23;56.18;96222.75;4211244;28;5537;-69
2022/11/04 03:32:07;;;;;;;;;;;;;;;15.17;56.09;96215.69;4216801;28;5814;-69
2022/11/04 03:34:11;;;;;;;;;;;;;;;15.14;56.14;96212.44;4208781;28;5635;-69
2022/11/04 03:36:15;;;;;;;;;;;;;;;15.14;56.19;96209.78;4209637;28;5697;-69
2022/11/04 03:38:20;;;;;;;;;;;;;;;15.13;56.17;96213.50;4209224;28;5758;-69
2022/11/04 03:40:24;;;;;;;;;;;;;;;15.12;55.92;96211.88;4200943;28;6447;-69
2022/11/04 03:42:28;;;;;;;;;;;;;;;15.12;56.06;96209.22;4208941;28;5122;-69
2022/11/04 03:44:30;;;;;;;;;;;;;;;15.14;55.75;96206.31;4208851;28;7683;-68
2022/11/04 03:46:34;;;;;;;;;;;;;;;15.13;55.80;96196.72;4211383;28;5613;-68
2022/11/04 03:48:37;;;;;;;;;;;;;;;15.11;55.69;96193.50;4217100;28;5616;-68
2022/11/04 03:50:42;;;;;;;;;;;;;;;15.08;55.73;96193.97;4215185;28;5104;-68
2022/11/04 03:52:46;;;;;;;;;;;;;;;15.09;55.67;96185.75;4216734;28;7784;-69
2022/11/04 03:54:49;;;;;;;;;;;;;;;15.10;55.68;96186.53;4216221;28;7668;-69
2022/11/04 03:57:28;;;;;;;;;;;;;;;15.07;55.78;96179.84;4200504;28;5635;-69
2022/11/04 04:00:00;;;;;;;;;;;;;;;15.06;55.85;96180.06;4180794;28;6005;-69
2022/11/04 04:02:10;;;;;;;;;;;;;;;15.03;55.65;96177.88;4181810;28;5670;-69
2022/11/04 04:04:19;;;;;;;;;;;;;;;14.98;55.59;96173.28;4180459;28;5856;-69
2022/11/04 04:06:27;;;;;;;;;;;;;;;14.98;55.52;96172.47;4180289;28;5789;-68
2022/11/04 04:08:37;;;;;;;;;;;;;;;14.96;55.38;96174.56;4182229;28;6486;-68
2022/11/04 04:10:48;;;;;;;;;;;;;;;14.95;55.42;96172.91;4181188;28;5777;-69
2022/11/04 04:13:26;;;;;;;;;;;;;;;15.00;55.49;96173.84;4178809;28;5789;-68
2022/11/04 04:15:55;;;;;;;;;;;;;;;15.00;55.33;96160.53;4175373;28;6544;-69
2022/11/04 04:18:01;;;;;;;;;;;;;;;15.03;55.55;96154.72;4183377;28;5888;-69
2022/11/04 04:20:09;;;;;;;;;;;;;;;15.05;55.34;96151.81;4184672;28;5793;-69
2022/11/04 04:22:17;;;;;;;;;;;;;;;15.05;55.39;96160.63;4182907;28;6534;-69
2022/11/04 04:29:10;;;;;;;;;;;;;;;15.01;55.34;96162.16;4184225;28;6304;-69
2022/11/04 04:31:48;;;;;;;;;;;;;;;15.00;55.33;96165.84;4176944;28;5871;-69
2022/11/04 04:33:39;;;;;;;;;;;;;;;14.99;55.07;96158.91;4185057;28;5844;-69
2022/11/04 04:35:46;;;;;;;;;;;;;;;14.98;55.07;96159.97;4204341;28;5605;-68
2022/11/04 04:37:52;;;;;;;;;;;;;;;14.95;54.98;96157.78;4219558;28;6937;-69
2022/11/04 05:09:07;;;;;;;;;;;;;;;13.98;56.34;96131.72;4159640;27;1418466;-68
2022/11/04 05:11:10;;;;;;;;;;;;;;;14.18;55.88;96135.88;4193097;28;5634;-69
2022/11/04 05:13:29;;;;;;;;;;;;;;;14.32;55.84;96134.59;4198884;28;5699;-69
2022/11/04 05:15:32;;;;;;;;;;;;;;;14.42;55.45;96137.47;4198498;28;6663;-69
2022/11/04 05:17:35;;;;;;;;;;;;;;;14.52;55.49;96124.44;4199055;28;6651;-68
2022/11/04 05:19:38;;;;;;;;;;;;;;;14.62;55.07;96131.03;4196664;28;6403;-68
2022/11/04 05:21:41;;;;;;;;;;;;;;;14.64;55.39;96127.06;4195031;28;5192;-68
2022/11/04 05:23:44;;;;;;;;;;;;;;;14.71;55.12;96124.25;4199707;28;5639;-68
2022/11/04 05:25:48;;;;;;;;;;;;;;;14.78;55.08;96124.94;4190987;28;5657;-68
2022/11/04 05:27:50;;;;;;;;;;;;;;;14.84;54.89;96118.69;4195916;28;5642;-68
2022/11/04 05:29:53;;;;;;;;;;;;;;;14.88;55.09;96114.50;4197435;28;6490;-68
2022/11/04 05:31:56;;;;;;;;;;;;;;;14.92;55.19;96110.31;4197771;28;6877;-68
2022/11/04 05:34:00;;;;;;;;;;;;;;;14.92;55.14;96115.66;4197073;28;5677;-68
2022/11/04 05:36:06;;;;;;;;;;;;;;;14.94;54.79;96113.56;4197761;28;5744;-68
2022/11/04 05:38:09;;;;;;;;;;;;;;;14.94;55.30;96126.06;4172485;28;5658;-68
2022/11/04 05:40:12;;;;;;;;;;;;;;;14.92;55.20;96115.66;4197300;28;5646;-66
2022/11/04 05:42:16;;;;;;;;;;;;;;;14.92;55.23;96120.97;4196652;28;5864;-68
2022/11/04 05:44:19;;;;;;;;;;;;;;;14.94;55.32;96105.56;4190187;28;6060;-68
2022/11/04 05:46:22;;;;;;;;;;;;;;;14.93;55.45;96101.28;4189320;28;5737;-69
2022/11/04 05:48:25;;;;;;;;;;;;;;;14.96;55.27;96094.72;4191286;28;5635;-69
2022/11/04 05:50:29;;;;;;;;;;;;;;;14.96;55.42;96097.38;4188868;28;5653;-69
2022/11/04 05:52:32;;;;;;;;;;;;;;;14.97;55.59;96086.47;4168314;28;5581;-68
2022/11/04 05:54:37;;;;;;;;;;;;;;;14.96;55.38;96084.88;4184905;28;5107;-69
2022/11/04 05:56:39;;;;;;;;;;;;;;;14.96;55.69;96087.53;4187303;28;7716;-69
2022/11/04 05:58:44;;;;;;;;;;;;;;;14.95;55.75;96087.75;4194566;28;5678;-69
2022/11/04 06:00:46;;;;;;;;;;;;;;;14.95;55.52;96083.25;4189726;28;5820;-69
2022/11/04 06:02:49;;;;;;;;;;;;;;;14.90;55.76;96085.81;4196205;28;5647;-69
2022/11/04 06:04:52;;;;;;;;;;;;;;;14.91;56.00;96070.66;4194942;28;5726;-69
2022/11/04 06:06:54;;;;;;;;;;;;;;;14.91;56.09;96082.09;4185409;28;5938;-69
2022/11/04 06:08:58;;;;;;;;;;;;;;;14.92;55.86;96073.06;4180888;28;5839;-69
2022/11/04 06:11:04;;;;;;;;;;;;;;;14.91;56.00;96074.13;4185068;28;5707;-70
2022/11/04 06:13:09;;;;;;;;;;;;;;;14.88;55.82;96071.13;4172686;28;5793;-69
2022/11/04 06:15:12;;;;;;;;;;;;;;;14.87;55.97;96075.66;4172156;28;5768;-69
2022/11/04 06:17:16;;;;;;;;;;;;;;;14.86;56.23;96074.03;4184651;28;5647;-69
2022/11/04 06:19:19;;;;;;;;;;;;;;;14.86;56.16;96063.38;4179851;28;5756;-70
2022/11/04 06:21:25;;;;;;;;;;;;;;;14.83;56.22;96063.84;4184138;28;5737;-69
2022/11/04 06:23:27;;;;;;;;;;;;;;;14.84;56.06;96060.16;4182320;28;5870;-69
2022/11/04 06:25:30;;;;;;;;;;;;;;;14.83;56.26;96058.53;4183959;28;5737;-69
2022/11/04 06:27:33;;;;;;;;;;;;;;;14.82;56.25;96060.38;4182389;28;5726;-69
2022/11/04 06:29:38;;;;;;;;;;;;;;;14.79;56.24;96062.72;4186590;28;5732;-70
2022/11/04 06:31:43;;;;;;;;;;;;;;;14.71;56.20;96063.06;4182991;28;5654;-70
2022/11/04 06:33:46;;;;;;;;;;;;;;;14.72;56.14;96059.38;4178890;28;5736;-69
2022/11/04 06:35:49;;;;;;;;;;;;;;;14.72;56.24;96064.69;4182232;28;5654;-68
2022/11/04 06:37:51;;;;;;;;;;;;;;;14.65;56.37;96058.72;4180054;28;5803;-70
2022/11/04 06:39:54;;;;;;;;;;;;;;;14.62;56.50;96059.19;4174870;28;5634;-74
2022/11/04 06:41:57;;;;;;;;;;;;;;;14.66;56.54;96065.66;4183633;28;5654;-74
2022/11/04 06:44:04;;;;;;;;;;;;;;;14.70;56.31;96058.81;4185416;28;5706;-74
2022/11/04 06:46:23;;;;;;;;;;;;;;;14.68;56.40;96055.56;4185673;28;6734;-74
2022/11/04 06:48:29;;;;;;;;;;;;;;;14.66;56.45;96052.34;4185929;28;5642;-75
2022/11/04 06:50:32;;;;;;;;;;;;;;;14.54;56.40;96047.06;4185916;28;5671;-75
2022/11/04 06:52:34;;;;;;;;;;;;;;;14.46;56.32;96047.44;4185682;28;5745;-74
2022/11/04 06:54:44;;;;;;;;;;;;;;;14.33;56.69;96048.47;4185692;28;5773;-75
2022/11/04 06:56:49;;;;;;;;;;;;;;;14.32;56.62;96048.72;4185688;28;5638;-74
2022/11/04 06:58:53;;;;;;;;;;;;;;;14.34;56.66;96059.91;4185394;28;6308;-74
2022/11/04 07:00:56;;;;;;;;;;;;;;;14.42;56.66;96059.56;4182818;28;5667;-74
2022/11/04 07:02:59;;;;;;;;;;;;;;;14.47;56.58;96055.16;4174833;28;5697;-74
2022/11/04 07:05:04;;;;;;;;;;;;;;;14.50;56.52;96048.59;4173872;28;5741;-74
2022/11/04 07:07:07;;;;;;;;;;;;;;;14.52;56.60;96047.31;4180949;28;5742;-73
2022/11/04 07:09:11;;;;;;;;;;;;;;;14.53;56.65;96043.59;4151077;28;5779;-74
2022/11/04 07:11:14;;;;;;;;;;;;;;;14.59;56.67;96046.34;4168057;28;6347;-74
2022/11/04 07:13:17;;;;;;;;;;;;;;;14.63;56.51;96047.50;4166793;28;5799;-74
2022/11/04 07:15:20;;;;;;;;;;;;;;;14.61;56.30;96042.44;4167902;28;6375;-74
2022/11/04 07:17:29;;;;;;;;;;;;;;;14.57;56.51;96050.06;4166963;28;5773;-74
2022/11/04 07:19:32;;;;;;;;;;;;;;;14.55;56.66;96046.84;4168587;28;5659;-74
2022/11/04 07:21:36;;;;;;;;;;;;;;;14.56;56.63;96045.78;4165635;28;5658;-74
2022/11/04 07:23:39;;;;;;;;;;;;;;;14.55;56.77;96044.16;4153009;28;5844;-74
2022/11/04 07:25:43;;;;;;;;;;;;;;;14.48;56.52;96032.84;4152341;28;5787;-74
2022/11/04 07:27:46;;;;;;;;;;;;;;;14.40;56.72;96046.50;4160446;28;5654;-74
2022/11/04 07:29:49;;;;;;;;;;;;;;;14.34;56.80;96046.63;4167241;28;5662;-73
2022/11/04 07:31:53;;;;;;;;;;;;;;;14.25;56.83;96049.63;4156956;28;5756;-74
2022/11/04 07:33:55;;;;;;;;;;;;;;;14.29;56.89;96052.66;4153729;28;5744;-74
2022/11/04 07:35:58;;;;;;;;;;;;;;;14.38;56.86;96051.22;4159661;28;5662;-74
2022/11/04 07:38:03;;;;;;;;;;;;;;;14.46;56.72;96031.47;4166653;28;5646;-74
2022/11/04 07:40:07;;;;;;;;;;;;;;;14.52;56.74;96035.88;4153082;28;5784;-74
2022/11/04 07:42:10;;;;;;;;;;;;;;;14.57;56.68;96042.06;4157052;28;5677;-75
2022/11/04 07:44:14;;;;;;;;;;;;;;;14.62;56.60;96040.56;4152743;28;5704;-75
2022/11/04 07:46:18;;;;;;;;;;;;;;;14.65;56.78;96035.59;4167652;28;5643;-75
2022/11/04 07:48:21;;;;;;;;;;;;;;;14.65;56.69;96037.44;4162897;28;5654;-75
2022/11/04 07:50:24;;;;;;;;;;;;;;;14.66;56.49;96036.38;4165895;28;5666;-76
2022/11/04 07:52:27;;;;;;;;;;;;;;;14.66;56.55;96042.50;4168012;28;5682;-75
2022/11/04 07:54:31;;;;;;;;;;;;;;;14.69;56.53;96039.38;4156525;28;5669;-76
2022/11/04 07:56:34;;;;;;;;;;;;;;;14.71;56.54;96033.81;4152806;28;5680;-75
2022/11/04 07:58:40;;;;;;;;;;;;;;;14.75;56.68;96040.28;4164449;28;5957;-75
2022/11/04 08:00:42;;;;;;;;;;;;;;;14.77;56.34;96035.53;4167913;28;5650;-75
2022/11/04 08:02:45;;;;;;;;;;;;;;;14.80;56.60;96040.38;4167935;28;5662;-75
2022/11/04 08:04:49;;;;;;;;;;;;;;;14.80;56.51;96035.06;4168020;28;5765;-76
2022/11/04 08:06:53;;;;;;;;;;;;;;;14.82;56.70;96040.94;4158615;28;5795;-75
2022/11/04 08:08:57;;;;;;;;;;;;;;;14.83;56.61;96031.91;4171309;28;5643;-75
2022/11/04 08:11:04;;;;;;;;;;;;;;;14.87;56.59;96037.59;4176883;28;5681;-72
2022/11/04 08:13:07;;;;;;;;;;;;;;;14.87;56.39;96026.94;4168082;28;6564;-75
2022/11/04 08:15:10;;;;;;;;;;;;;;;14.90;56.39;96021.94;4167572;28;5669;-74
2022/11/04 08:17:13;;;;;;;;;;;;;;;14.87;56.30;96021.63;4167608;28;5763;-75
2022/11/04 08:19:17;;;;;;;;;;;;;;;14.85;56.42;96029.84;4167865;28;5649;-74
2022/11/04 08:21:21;;;;;;;;;;;;;;;14.86;56.40;96031.47;4167569;28;5665;-74
2022/11/04 08:23:24;;;;;;;;;;;;;;;14.87;56.48;96027.75;4168261;28;5672;-74
2022/11/04 08:25:27;;;;;;;;;;;;;;;14.91;56.55;96028.06;4173736;28;6546;-74
2022/11/04 08:27:31;;;;;;;;;;;;;;;14.92;56.59;96030.47;4167823;28;5669;-74
2022/11/04 08:29:36;;;;;;;;;;;;;;;14.92;56.65;96029.69;4170942;28;5654;-75
2022/11/04 08:31:39;;;;;;;;;;;;;;;14.92;56.55;96024.34;4176752;28;5725;-74
2022/11/04 08:33:44;;;;;;;;;;;;;;;14.93;56.50;96005.47;4183205;28;5638;-74
2022/11/04 08:35:47;;;;;;;;;;;;;;;14.92;56.50;95995.88;4183533;28;5666;-74
2022/11/04 08:37:49;;;;;;;;;;;;;;;14.88;56.40;95994.75;4177759;28;5650;-73
2022/11/04 08:39:52;;;;;;;;;;;;;;;14.82;56.53;95999.16;4182786;28;5749;-74
2022/11/04 08:41:55;;;;;;;;;;;;;;;14.80;56.64;96008.44;4183935;28;5750;-74
2022/11/04 08:44:02;;;;;;;;;;;;;;;14.84;56.66;96012.25;4176522;28;5646;-74
2022/11/04 08:46:08;;;;;;;;;;;;;;;14.87;56.68;96005.66;4175127;28;5646;-74
2022/11/04 08:48:11;;;;;;;;;;;;;;;14.90;56.71;95995.31;4165774;28;5857;-74
2022/11/04 08:50:14;;;;;;;;;;;;;;;14.95;56.36;95991.94;4183029;28;5634;-74
2022/11/04 08:52:17;;;;;;;;;;;;;;;14.98;56.62;95989.63;4181766;28;5300;-74
2022/11/04 08:54:20;;;;;;;;;;;;;;;15.01;56.53;95983.81;4179026;28;5638;-74
2022/11/04 08:56:25;;;;;;;;;;;;;;;15.02;56.33;95988.09;4183354;28;6583;-74
2022/11/04 08:58:28;;;;;;;;;;;;;;;15.04;56.30;95988.66;4180620;28;5725;-73
2022/11/04 09:00:32;;;;;;;;;;;;;;;15.07;56.31;95980.19;4180329;28;5651;-74
2022/11/04 09:02:35;;;;;;;;;;;;;;;15.09;56.45;95987.94;4167438;28;5689;-74
2022/11/04 09:04:38;;;;;;;;;;;;;;;15.11;56.28;95989.31;4166649;28;5820;-74
2022/11/04 09:06:44;;;;;;;;;;;;;;;15.10;56.36;95989.56;4176956;28;5804;-74
2022/11/04 09:08:48;;;;;;;;;;;;;;;15.07;56.41;95980.19;4176553;28;5718;-74
2022/11/04 09:10:50;;;;;;;;;;;;;;;15.05;56.50;95982.28;4183703;28;5658;-74
2022/11/04 09:12:53;;;;;;;;;;;;;;;15.05;56.24;95982.28;4183655;28;5720;-74
2022/11/04 09:14:56;;;;;;;;;;;;;;;15.07;56.23;95974.88;4183246;28;5678;-74
2022/11/04 09:17:00;;;;;;;;;;;;;;;15.07;56.12;95968.75;4183831;28;5191;-74
2022/11/04 09:19:03;;;;;;;;;;;;;;;15.09;56.18;95971.97;4183689;28;5717;-74
2022/11/04 09:21:08;;;;;;;;;;;;;;;15.10;56.19;95971.72;4183748;28;5965;-75
2022/11/04 09:23:11;;;;;;;;;;;;;;;15.11;56.15;95962.69;4183933;28;7229;-74
2022/11/04 09:25:14;;;;;;;;;;;;;;;15.10;55.91;95958.41;4183839;28;5634;-74
2022/11/04 09:27:17;;;;;;;;;;;;;;;15.12;55.90;95966.97;4183722;28;5666;-73
2022/11/04 09:29:20;;;;;;;;;;;;;;;15.13;56.04;95955.25;4183336;28;5717;-74
2022/11/04 09:31:23;;;;;;;;;;;;;;;15.16;55.91;95961.94;4183737;28;5746;-74
2022/11/04 09:33:27;;;;;;;;;;;;;;;15.20;55.83;95956.97;4183705;28;5634;-75
2022/11/04 09:35:30;;;;;;;;;;;;;;;15.21;55.78;95964.72;4183911;28;5654;-75
2022/11/04 09:37:33;;;;;;;;;;;;;;;15.20;55.76;95971.09;4183714;28;5643;-75
2022/11/04 09:39:36;;;;;;;;;;;;;;;15.23;55.79;95980.44;4183393;28;5804;-75
2022/11/04 09:42:05;;;;;;;;;;;;;;;15.25;55.67;95986.31;4183722;28;5658;-74
2022/11/04 09:44:19;;;;;;;;;;;;;;;15.23;55.68;95985.75;4184295;28;5775;-75
2022/11/04 09:46:23;;;;;;;;;;;;;;;15.20;55.87;95986.25;4186901;28;5729;-75
2022/11/04 09:48:33;;;;;;;;;;;;;;;15.19;55.87;95988.13;4186837;28;5638;-75
2022/11/04 09:50:46;;;;;;;;;;;;;;;15.21;55.73;95990.53;4169012;28;5660;-75
2022/11/04 09:52:55;;;;;;;;;;;;;;;15.23;55.79;95972.44;4186825;28;5662;-74
2022/11/04 09:55:04;;;;;;;;;;;;;;;15.26;55.78;95969.28;4186692;28;5635;-74
2022/11/04 09:57:16;;;;;;;;;;;;;;;15.26;55.76;95966.63;4185538;28;5643;-75
2022/11/04 09:59:25;;;;;;;;;;;;;;;15.26;55.43;95955.97;4186419;28;6562;-75
2022/11/04 10:01:36;;;;;;;;;;;;;;;15.28;55.39;95964.53;4186676;28;5093;-75
2022/11/04 10:03:53;;;;;;;;;;;;;;;15.31;55.48;95961.41;4186661;28;5741;-75
2022/11/04 10:06:08;;;;;;;;;;;;;;;15.32;55.43;95955.84;4186464;28;5686;-74
2022/11/04 10:08:28;;;;;;;;;;;;;;;15.33;55.31;95960.09;4177572;28;5797;-75
2022/11/04 10:10:49;;;;;;;;;;;;;;;15.33;55.31;95967.28;4152353;28;5815;-75
2022/11/04 10:13:05;;;;;;;;;;;;;;;15.32;55.42;95973.66;4170072;28;5681;-75
2022/11/04 10:15:22;;;;;;;;;;;;;;;15.33;55.20;95975.28;4169531;28;5837;-75
2022/11/04 10:17:40;;;;;;;;;;;;;;;15.32;55.23;95977.13;4169973;28;5679;-75
2022/11/04 10:19:59;;;;;;;;;;;;;;;15.29;55.22;95966.97;4169807;28;5662;-75
2022/11/04 10:22:10;;;;;;;;;;;;;;;15.31;55.12;95970.19;4169894;28;5840;-75
2022/11/04 10:24:20;;;;;;;;;;;;;;;15.29;55.26;95966.13;4169852;28;5764;-75
2022/11/04 10:26:31;;;;;;;;;;;;;;;15.31;55.11;95970.19;4169771;28;5760;-75
2022/11/04 10:28:41;;;;;;;;;;;;;;;15.34;55.19;95961.72;4169182;28;5675;-74
2022/11/04 10:30:47;;;;;;;;;;;;;;;15.37;55.25;95973.72;4169618;28;5658;-75
2022/11/04 10:33:01;;;;;;;;;;;;;;;15.37;55.15;95971.88;4169505;28;5658;-75
2022/11/04 10:35:17;;;;;;;;;;;;;;;15.40;55.29;95975.91;4169645;28;5726;-75
2022/11/04 10:37:21;;;;;;;;;;;;;;;15.40;55.12;95966.09;4169430;28;5068;-75
2022/11/04 10:39:29;;;;;;;;;;;;;;;15.40;55.31;95963.41;4169489;28;5682;-75
2022/11/04 10:41:35;;;;;;;;;;;;;;;15.40;55.05;95965.25;4169460;28;5800;-75
2022/11/04 10:43:40;;;;;;;;;;;;;;;15.39;55.11;95963.63;4169007;28;5765;-75
2022/11/04 10:45:53;;;;;;;;;;;;;;;15.38;55.07;95959.38;4169633;28;5666;-75
2022/11/04 10:48:00;;;;;;;;;;;;;;;15.39;55.07;95966.31;4169682;28;5790;-75
2022/11/04 10:50:37;;;;;;;;;;;;;;;15.38;55.06;95957.50;4169404;28;6329;-75
2022/11/04 10:52:40;;;;;;;;;;;;;;;15.40;55.16;95958.09;4102953;28;5866;-75
2022/11/04 10:54:47;;;;;;;;;;;;;;;15.40;54.96;95966.09;4102610;28;5120;-75
2022/11/04 10:56:51;;;;;;;;;;;;;;;15.37;55.16;95965.75;4102605;28;7830;-75
2022/11/04 10:58:56;;;;;;;;;;;;;;;15.39;55.18;95968.97;4102254;28;6005;-75
2022/11/04 11:00:59;;;;;;;;;;;;;;;15.39;55.23;95963.63;4102407;28;5906;-75
2022/11/04 11:03:02;;;;;;;;;;;;;;;15.38;55.26;95968.16;4102506;28;5923;-75
2022/11/04 11:05:29;;;;;;;;;;;;;;;15.39;55.09;95961.78;4102500;28;6651;-75
2022/11/04 11:07:37;;;;;;;;;;;;;;;15.42;55.31;95957.84;4099279;28;7209;-74
2022/11/04 11:09:50;;;;;;;;;;;;;;;15.41;55.23;95962.38;4134694;28;5815;-75
2022/11/04 11:11:59;;;;;;;;;;;;;;;15.40;55.17;95966.09;4100295;28;5860;-75
2022/11/04 11:14:02;;;;;;;;;;;;;;;15.37;55.30;95963.09;4101955;28;5745;-74
2022/11/04 11:16:08;;;;;;;;;;;;;;;15.35;55.22;95967.84;4102474;28;5747;-75
2022/11/04 11:18:15;;;;;;;;;;;;;;;15.35;55.14;95970.50;4113367;28;5757;-76
2022/11/04 11:20:21;;;;;;;;;;;;;;;15.35;55.29;95970.50;4105726;28;5883;-76
2022/11/04 11:22:35;;;;;;;;;;;;;;;15.31;55.44;95975.53;4117554;28;5852;-75
2022/11/04 11:24:39;;;;;;;;;;;;;;;15.29;55.26;95968.81;4118245;28;5814;-75
2022/11/04 11:26:47;;;;;;;;;;;;;;;15.31;55.11;95972.06;4137693;28;5654;-75
2022/11/04 11:28:55;;;;;;;;;;;;;;;15.30;55.33;95971.25;4184345;28;5640;-74
2022/11/04 11:31:03;;;;;;;;;;;;;;;15.30;55.43;95967.78;4183178;28;5643;-75
2022/11/04 11:33:14;;;;;;;;;;;;;;;15.30;55.18;95973.09;4176832;28;5773;-74
2022/11/04 11:35:18;;;;;;;;;;;;;;;15.30;55.26;95978.44;4183585;28;5732;-74
2022/11/04 11:37:24;;;;;;;;;;;;;;;15.25;55.42;95983.66;4178099;28;5864;-74
2022/11/04 11:39:28;;;;;;;;;;;;;;;15.20;55.33;95979.06;4177845;28;5708;-75
2022/11/04 11:41:35;;;;;;;;;;;;;;;15.17;55.50;95973.41;4184792;28;5650;-74
2022/11/04 11:43:49;;;;;;;;;;;;;;;15.17;55.24;95970.75;4184528;28;5650;-74
2022/11/04 11:45:53;;;;;;;;;;;;;;;15.17;55.27;95984.84;4171012;28;5678;-74
2022/11/04 11:47:56;;;;;;;;;;;;;;;15.13;55.45;95979.22;4168276;28;5669;-74
2022/11/04 11:50:17;;;;;;;;;;;;;;;15.12;55.54;95988.25;4176814;28;5716;-74
2022/11/04 11:52:33;;;;;;;;;;;;;;;15.10;55.57;95979.72;4168351;28;5196;-74
2022/11/04 11:54:38;;;;;;;;;;;;;;;15.08;55.60;95984.47;4174535;28;8423;-74
2022/11/04 11:56:46;;;;;;;;;;;;;;;15.05;55.59;95981.47;4171462;28;6412;-74